Time;durP1;ratioP1;P1;durP2;ratioP2;P2;SDS_P1;SDS_P2;PMS_P1;PMS_P2;Temp;Humidity;BMP_temperature;BMP_pressure;BME280_temperature;BME280_humidity;BME280_pressure;Samples;Min_cycle;Max_cycle;Signal;HPM_P1;HPM_P2
2023/11/17 00:02:10;;;;;;;3.83;2.75;;;;;;;;;;5115930;28;20019;-72
2023/11/17 00:04:56;;;;;;;4.63;3.22;;;;;;;;;;5101861;28;20020;-71
2023/11/17 00:07:42;;;;;;;4.72;3.25;;;;;;;;;;5116950;27;20020;-71
2023/11/17 00:10:27;;;;;;;4.05;2.90;;;;;;;;;;5115711;28;20020;-71
2023/11/17 00:13:13;;;;;;;3.72;2.97;;;;;;;;;;5115996;28;20409;-71
2023/11/17 00:15:58;;;;;;;4.22;2.85;;;;;;;;;;5116658;28;20337;-71
2023/11/17 00:18:44;;;;;;;4.35;3.00;;;;;;;;;;5109739;27;20019;-71
2023/11/17 00:21:30;;;;;;;3.97;3.00;;;;;;;;;;5135478;27;20060;-72
2023/11/17 00:24:15;;;;;;;3.97;2.75;;;;;;;;;;5136185;27;20056;-71
2023/11/17 00:27:03;;;;;;;3.28;2.70;;;;;;;;;;5137147;27;20059;-71
2023/11/17 00:29:49;;;;;;;4.72;2.88;;;;;;;;;;5139224;27;20041;-72
2023/11/17 00:32:35;;;;;;;4.60;3.00;;;;;;;;;;5137159;27;20023;-71
2023/11/17 00:35:21;;;;;;;4.90;2.90;;;;;;;;;;5135573;27;20027;-72
2023/11/17 00:38:07;;;;;;;4.88;2.85;;;;;;;;;;5135402;27;20495;-72
2023/11/17 00:40:53;;;;;;;4.55;3.03;;;;;;;;;;5136063;27;20047;-71
2023/11/17 00:43:39;;;;;;;4.35;3.03;;;;;;;;;;5136920;27;20092;-71
2023/11/17 00:46:24;;;;;;;7.45;2.90;;;;;;;;;;5123329;27;20444;-72
2023/11/17 00:49:12;;;;;;;5.45;3.33;;;;;;;;;;5116941;28;20439;-73
2023/11/17 00:51:58;;;;;;;5.00;3.00;;;;;;;;;;5115804;28;20059;-72
2023/11/17 00:54:47;;;;;;;5.85;2.88;;;;;;;;;;5115320;28;20055;-71
2023/11/17 00:57:32;;;;;;;3.35;2.45;;;;;;;;;;5115952;28;20012;-72
2023/11/17 01:00:18;;;;;;;3.97;2.42;;;;;;;;;;5116803;28;20020;-72
2023/11/17 01:03:04;;;;;;;4.97;2.50;;;;;;;;;;5116227;28;20016;-72
2023/11/17 01:05:49;;;;;;;4.43;2.38;;;;;;;;;;5115134;28;20012;-72
2023/11/17 01:08:35;;;;;;;2.75;2.20;;;;;;;;;;5116171;28;20116;-71
2023/11/17 01:11:20;;;;;;;9.60;2.83;;;;;;;;;;5115396;28;20022;-73
2023/11/17 01:14:08;;;;;;;4.25;2.30;;;;;;;;;;5101104;28;20448;-73
2023/11/17 01:16:53;;;;;;;8.18;2.60;;;;;;;;;;5101204;28;20118;-75
2023/11/17 01:19:45;;;;;;;3.75;2.35;;;;;;;;;;5115949;28;20028;-72
2023/11/17 01:22:30;;;;;;;4.00;2.50;;;;;;;;;;5100810;28;20355;-72
2023/11/17 01:25:16;;;;;;;4.78;2.30;;;;;;;;;;5115421;28;20023;-72
2023/11/17 01:28:03;;;;;;;4.78;2.22;;;;;;;;;;5101299;28;20023;-72
2023/11/17 01:30:48;;;;;;;4.18;2.33;;;;;;;;;;5116054;28;20140;-73
2023/11/17 01:33:34;;;;;;;4.45;2.42;;;;;;;;;;5115400;28;20092;-72
2023/11/17 01:36:20;;;;;;;3.22;2.30;;;;;;;;;;5115992;28;20359;-72
2023/11/17 01:39:09;;;;;;;2.85;2.25;;;;;;;;;;5100592;28;20019;-72
2023/11/17 01:41:55;;;;;;;3.97;2.45;;;;;;;;;;5114859;28;20024;-74
2023/11/17 01:44:40;;;;;;;3.30;2.30;;;;;;;;;;5114424;28;20023;-70
2023/11/17 01:47:26;;;;;;;5.18;2.55;;;;;;;;;;5113967;28;20432;-71
2023/11/17 01:50:14;;;;;;;3.03;2.30;;;;;;;;;;5100517;28;20023;-70
2023/11/17 01:52:59;;;;;;;4.55;2.05;;;;;;;;;;5114722;28;20356;-71
2023/11/17 01:55:45;;;;;;;3.17;2.15;;;;;;;;;;5100699;28;20015;-72
2023/11/17 01:58:30;;;;;;;3.53;2.05;;;;;;;;;;5115347;28;20058;-72
2023/11/17 02:01:16;;;;;;;4.15;2.20;;;;;;;;;;5099547;28;20095;-72
2023/11/17 02:04:02;;;;;;;4.15;2.33;;;;;;;;;;5101081;28;20022;-72
2023/11/17 02:06:47;;;;;;;6.03;2.47;;;;;;;;;;5115072;28;20027;-71
2023/11/17 02:09:36;;;;;;;2.88;2.13;;;;;;;;;;5114593;28;20389;-71
2023/11/17 02:12:45;;;;;;;2.50;2.03;;;;;;;;;;5100666;28;20016;-72
2023/11/17 02:15:35;;;;;;;2.53;2.05;;;;;;;;;;5114976;28;20020;-71
2023/11/17 02:18:22;;;;;;;9.07;3.10;;;;;;;;;;5115379;28;20392;-71
2023/11/17 02:21:08;;;;;;;2.42;2.20;;;;;;;;;;5100489;28;20020;-72
2023/11/17 02:23:54;;;;;;;3.33;2.28;;;;;;;;;;5100414;28;20030;-70
2023/11/17 02:27:06;;;;;;;4.10;2.35;;;;;;;;;;5114049;28;20398;-71
2023/11/17 02:29:56;;;;;;;7.15;2.40;;;;;;;;;;5100571;28;20081;-71
2023/11/17 02:32:42;;;;;;;2.83;2.20;;;;;;;;;;5100908;28;20059;-71
2023/11/17 02:35:28;;;;;;;4.72;2.10;;;;;;;;;;5114687;28;20420;-71
2023/11/17 02:38:15;;;;;;;12.93;2.67;;;;;;;;;;5100400;28;20029;-72
2023/11/17 02:41:03;;;;;;;4.15;2.00;;;;;;;;;;5114842;28;20362;-72
2023/11/17 02:43:48;;;;;;;2.67;2.00;;;;;;;;;;5115222;28;20066;-72
2023/11/17 02:46:34;;;;;;;2.63;2.00;;;;;;;;;;5114038;28;20077;-71
2023/11/17 02:49:29;;;;;;;2.85;1.70;;;;;;;;;;5100171;28;20019;-71
2023/11/17 02:52:22;;;;;;;5.00;1.92;;;;;;;;;;5113810;28;20118;-71
2023/11/17 02:55:10;;;;;;;4.97;2.15;;;;;;;;;;5114382;28;20015;-71
2023/11/17 02:57:56;;;;;;;2.65;1.80;;;;;;;;;;5113627;28;20024;-71
2023/11/17 03:00:42;;;;;;;2.35;2.00;;;;;;;;;;5114085;28;20355;-72
2023/11/17 03:03:28;;;;;;;2.35;1.92;;;;;;;;;;5102548;28;20367;-71
2023/11/17 03:06:14;;;;;;;3.88;1.90;;;;;;;;;;5104493;28;20066;-72
2023/11/17 03:09:04;;;;;;;3.05;1.90;;;;;;;;;;5118604;28;20360;-71
2023/11/17 03:11:50;;;;;;;5.65;2.15;;;;;;;;;;5117996;28;20462;-71
2023/11/17 03:14:39;;;;;;;2.70;1.85;;;;;;;;;;5118186;28;20043;-71
2023/11/17 03:17:25;;;;;;;3.10;2.03;;;;;;;;;;5117688;28;20023;-72
2023/11/17 03:20:14;;;;;;;3.58;2.30;;;;;;;;;;5103745;28;20043;-72
2023/11/17 03:23:00;;;;;;;3.05;2.20;;;;;;;;;;5104024;28;20035;-72
2023/11/17 03:25:45;;;;;;;3.78;2.50;;;;;;;;;;5102887;28;20055;-72
2023/11/17 03:28:31;;;;;;;5.07;3.30;;;;;;;;;;5117439;28;20016;-73
2023/11/17 03:31:17;;;;;;;5.38;3.95;;;;;;;;;;5117177;28;20020;-72
2023/11/17 03:34:02;;;;;;;6.30;4.15;;;;;;;;;;5117494;28;20031;-71
2023/11/17 03:37:00;;;;;;;6.63;4.57;;;;;;;;;;5117363;28;20341;-71
2023/11/17 03:39:45;;;;;;;10.73;4.97;;;;;;;;;;5103164;28;20422;-72
2023/11/17 03:42:32;;;;;;;8.23;5.57;;;;;;;;;;5103136;28;20435;-71
2023/11/17 03:45:19;;;;;;;7.85;5.70;;;;;;;;;;5117539;28;20039;-71
2023/11/17 03:48:05;;;;;;;10.80;5.95;;;;;;;;;;5117119;28;20020;-71
2023/11/17 03:50:51;;;;;;;9.55;6.07;;;;;;;;;;5102373;28;20101;-73
2023/11/17 03:53:36;;;;;;;45.20;7.88;;;;;;;;;;5103205;28;20115;-72
2023/11/17 03:56:22;;;;;;;11.55;6.07;;;;;;;;;;5116367;28;20027;-72
2023/11/17 03:59:13;;;;;;;12.18;6.10;;;;;;;;;;5117243;28;20011;-72
2023/11/17 04:01:59;;;;;;;11.63;5.60;;;;;;;;;;5116531;28;20031;-71
2023/11/17 04:04:45;;;;;;;8.00;5.28;;;;;;;;;;5117174;28;20413;-71
2023/11/17 04:07:30;;;;;;;10.60;5.68;;;;;;;;;;5116616;28;20337;-71
2023/11/17 04:10:18;;;;;;;9.10;6.05;;;;;;;;;;5116721;28;20024;-72
2023/11/17 04:13:04;;;;;;;9.90;6.05;;;;;;;;;;5117230;28;20023;-72
2023/11/17 04:15:50;;;;;;;10.93;6.05;;;;;;;;;;5114740;28;20096;-71
2023/11/17 04:18:37;;;;;;;10.80;6.43;;;;;;;;;;5117366;28;20011;-71
2023/11/17 04:21:23;;;;;;;13.38;7.88;;;;;;;;;;5116272;28;20027;-72
2023/11/17 04:24:09;;;;;;;10.95;6.55;;;;;;;;;;5103595;27;20024;-72
2023/11/17 04:26:56;;;;;;;9.52;5.93;;;;;;;;;;5117560;28;20015;-71
2023/11/17 04:29:42;;;;;;;13.93;6.85;;;;;;;;;;5102617;28;20102;-72
2023/11/17 04:32:27;;;;;;;14.68;7.55;;;;;;;;;;5117891;27;20016;-72
2023/11/17 04:35:13;;;;;;;14.35;6.32;;;;;;;;;;5116247;28;20031;-71
2023/11/17 04:37:58;;;;;;;7.15;4.30;;;;;;;;;;5102891;28;20015;-72
2023/11/17 04:40:44;;;;;;;6.65;4.10;;;;;;;;;;5102471;28;20038;-71
2023/11/17 04:43:30;;;;;;;6.25;3.70;;;;;;;;;;5116396;28;20020;-72
2023/11/17 04:46:17;;;;;;;6.70;3.75;;;;;;;;;;5115683;28;20051;-72
2023/11/17 04:49:02;;;;;;;5.63;3.95;;;;;;;;;;5116835;28;20042;-73
2023/11/17 04:51:48;;;;;;;5.45;3.83;;;;;;;;;;5102140;28;20089;-73
2023/11/17 04:54:35;;;;;;;6.30;3.45;;;;;;;;;;5117607;28;20084;-73
2023/11/17 04:57:20;;;;;;;17.05;4.45;;;;;;;;;;5116055;28;20503;-73
2023/11/17 05:00:13;;;;;;;13.02;4.03;;;;;;;;;;5102827;28;20043;-73
2023/11/17 05:03:02;;;;;;;5.75;4.00;;;;;;;;;;5116219;28;20015;-73
2023/11/17 05:05:50;;;;;;;6.07;3.80;;;;;;;;;;5101587;28;20016;-73
2023/11/17 05:08:37;;;;;;;7.22;3.88;;;;;;;;;;5116840;28;20348;-72
2023/11/17 05:11:23;;;;;;;5.63;3.88;;;;;;;;;;5115542;28;20358;-72
2023/11/17 05:14:09;;;;;;;8.95;4.00;;;;;;;;;;5114774;28;20031;-72
2023/11/17 05:17:06;;;;;;;9.80;4.60;;;;;;;;;;5115241;28;20024;-72
2023/11/17 05:19:52;;;;;;;6.07;4.45;;;;;;;;;;5115367;28;20022;-72
2023/11/17 05:22:37;;;;;;;9.57;4.32;;;;;;;;;;5115060;28;20032;-72
2023/11/17 05:25:24;;;;;;;4.95;3.63;;;;;;;;;;5115275;28;20340;-72
2023/11/17 05:28:09;;;;;;;4.70;3.60;;;;;;;;;;5116127;28;20098;-72
2023/11/17 05:30:55;;;;;;;5.95;3.72;;;;;;;;;;5115912;28;20432;-72
2023/11/17 05:33:41;;;;;;;9.95;4.38;;;;;;;;;;5115233;28;20054;-73
2023/11/17 05:36:27;;;;;;;11.18;4.32;;;;;;;;;;5115180;28;20436;-72
2023/11/17 05:39:13;;;;;;;16.10;5.18;;;;;;;;;;5116629;28;20023;-74
2023/11/17 05:41:58;;;;;;;17.35;6.07;;;;;;;;;;5115757;28;20351;-72
2023/11/17 05:44:44;;;;;;;22.20;8.65;;;;;;;;;;5115544;28;20093;-73
2023/11/17 05:47:29;;;;;;;20.35;9.45;;;;;;;;;;5100924;28;20024;-72
2023/11/17 05:50:15;;;;;;;20.27;9.38;;;;;;;;;;5114791;28;20035;-73
2023/11/17 05:53:01;;;;;;;17.77;9.55;;;;;;;;;;5115691;28;20039;-73
2023/11/17 05:55:46;;;;;;;22.77;11.85;;;;;;;;;;5115620;28;20034;-73
2023/11/17 05:58:33;;;;;;;32.47;13.50;;;;;;;;;;5115264;28;20059;-73
2023/11/17 06:01:19;;;;;;;32.05;13.60;;;;;;;;;;5114194;28;20020;-71
2023/11/17 06:04:08;;;;;;;17.77;10.43;;;;;;;;;;5115333;28;20034;-70
2023/11/17 06:06:53;;;;;;;26.15;11.77;;;;;;;;;;5115490;28;20023;-71
2023/11/17 06:09:39;;;;;;;22.42;7.80;;;;;;;;;;5100985;28;20107;-72
2023/11/17 06:12:26;;;;;;;13.05;5.97;;;;;;;;;;5115029;28;20016;-71
2023/11/17 06:15:14;;;;;;;15.90;5.90;;;;;;;;;;5115696;28;20034;-71
2023/11/17 06:18:04;;;;;;;12.35;6.80;;;;;;;;;;5115016;28;20035;-71
2023/11/17 06:20:50;;;;;;;15.13;7.55;;;;;;;;;;5115218;28;20020;-70
2023/11/17 06:23:35;;;;;;;10.35;7.68;;;;;;;;;;5115307;28;20035;-72
2023/11/17 06:26:21;;;;;;;14.85;7.90;;;;;;;;;;5115752;28;20464;-71
2023/11/17 06:29:07;;;;;;;15.10;8.20;;;;;;;;;;5115214;28;20027;-72
2023/11/17 06:31:53;;;;;;;18.83;8.52;;;;;;;;;;5115851;28;20138;-71
2023/11/17 06:34:38;;;;;;;12.52;7.93;;;;;;;;;;5115485;28;20019;-72
2023/11/17 06:37:24;;;;;;;15.70;7.85;;;;;;;;;;5100327;28;20114;-72
2023/11/17 06:40:10;;;;;;;15.32;8.18;;;;;;;;;;5119799;27;20019;-71
2023/11/17 06:42:55;;;;;;;12.25;7.20;;;;;;;;;;5119027;28;20012;-70
2023/11/17 06:45:41;;;;;;;23.17;8.70;;;;;;;;;;5118690;28;20059;-71
2023/11/17 06:48:28;;;;;;;22.95;8.35;;;;;;;;;;5119429;28;20444;-69
2023/11/17 06:51:14;;;;;;;17.30;7.97;;;;;;;;;;5119172;28;20071;-70
2023/11/17 06:53:59;;;;;;;17.02;8.35;;;;;;;;;;5119004;28;20363;-69
2023/11/17 06:56:46;;;;;;;16.95;8.05;;;;;;;;;;5104732;28;20432;-69
2023/11/17 06:59:32;;;;;;;13.80;7.72;;;;;;;;;;5118721;28;20030;-69
2023/11/17 07:02:18;;;;;;;13.70;7.57;;;;;;;;;;5117708;28;20432;-71
2023/11/17 07:05:07;;;;;;;13.35;6.15;;;;;;;;;;5119148;28;20093;-72
2023/11/17 07:07:53;;;;;;;11.48;6.50;;;;;;;;;;5118995;27;20459;-70
2023/11/17 07:10:42;;;;;;;13.60;6.72;;;;;;;;;;5118555;28;20035;-71
2023/11/17 07:13:28;;;;;;;13.25;6.13;;;;;;;;;;5104082;28;20035;-71
2023/11/17 07:16:18;;;;;;;13.35;5.85;;;;;;;;;;5118041;28;20023;-71
2023/11/17 07:19:08;;;;;;;8.73;5.07;;;;;;;;;;5104641;28;20026;-71
2023/11/17 07:21:55;;;;;;;7.45;4.97;;;;;;;;;;5103501;28;20016;-71
2023/11/17 07:24:41;;;;;;;14.32;5.55;;;;;;;;;;5118301;28;20470;-71
2023/11/17 07:27:28;;;;;;;9.10;5.32;;;;;;;;;;5103642;28;20084;-71
2023/11/17 07:30:14;;;;;;;18.25;6.50;;;;;;;;;;5103207;28;20036;-71
2023/11/17 07:32:59;;;;;;;12.27;6.15;;;;;;;;;;5118369;28;20024;-72
2023/11/17 07:35:45;;;;;;;23.77;7.10;;;;;;;;;;5118838;28;20027;-71
2023/11/17 07:38:31;;;;;;;18.08;6.03;;;;;;;;;;5104311;28;20027;-71
2023/11/17 07:41:16;;;;;;;15.20;6.68;;;;;;;;;;5117417;28;20028;-70
2023/11/17 07:44:02;;;;;;;22.00;7.15;;;;;;;;;;5116996;28;20034;-71
2023/11/17 07:46:48;;;;;;;14.55;6.65;;;;;;;;;;5117098;28;20017;-71
2023/11/17 07:49:34;;;;;;;20.85;6.53;;;;;;;;;;5115909;28;20031;-71
2023/11/17 07:52:23;;;;;;;14.38;6.03;;;;;;;;;;5117698;28;20044;-70
2023/11/17 07:55:09;;;;;;;20.80;6.70;;;;;;;;;;5117532;28;20035;-71
2023/11/17 07:57:56;;;;;;;23.17;7.78;;;;;;;;;;5117130;28;20016;-70
2023/11/17 08:00:43;;;;;;;19.30;7.88;;;;;;;;;;5117725;28;20023;-71
2023/11/17 08:03:29;;;;;;;34.25;8.63;;;;;;;;;;5116590;28;20440;-71
2023/11/17 08:06:15;;;;;;;22.25;7.57;;;;;;;;;;5117423;28;20562;-71
2023/11/17 08:09:01;;;;;;;26.70;8.07;;;;;;;;;;5116955;28;20016;-71
2023/11/17 08:11:48;;;;;;;19.30;7.20;;;;;;;;;;5116618;28;20114;-70
2023/11/17 08:14:34;;;;;;;15.20;7.00;;;;;;;;;;5117430;28;20020;-71
2023/11/17 08:17:20;;;;;;;20.02;7.28;;;;;;;;;;5103076;28;20024;-71
2023/11/17 08:20:14;;;;;;;19.85;7.07;;;;;;;;;;5103197;28;20015;-71
2023/11/17 08:22:59;;;;;;;11.73;6.47;;;;;;;;;;5103246;28;20447;-71
2023/11/17 08:25:45;;;;;;;21.23;7.18;;;;;;;;;;5117272;28;20035;-71
2023/11/17 08:28:32;;;;;;;13.75;6.68;;;;;;;;;;5103158;27;20129;-70
2023/11/17 08:31:18;;;;;;;13.35;6.30;;;;;;;;;;5116585;28;20436;-71
2023/11/17 08:34:04;;;;;;;13.55;6.63;;;;;;;;;;5117819;27;20028;-71
2023/11/17 08:36:50;;;;;;;15.40;6.97;;;;;;;;;;5103002;28;20057;-71
2023/11/17 08:39:36;;;;;;;20.88;7.85;;;;;;;;;;5103010;28;20099;-71
2023/11/17 08:42:22;;;;;;;15.98;7.28;;;;;;;;;;5117027;28;20031;-71
2023/11/17 08:45:08;;;;;;;13.13;6.50;;;;;;;;;;5117034;28;20031;-70
2023/11/17 08:47:55;;;;;;;12.60;6.40;;;;;;;;;;5102760;28;20107;-72
2023/11/17 08:50:41;;;;;;;12.40;6.93;;;;;;;;;;5102495;28;20448;-70
2023/11/17 08:53:26;;;;;;;16.40;7.10;;;;;;;;;;5116521;28;20023;-71
2023/11/17 08:56:12;;;;;;;14.85;6.93;;;;;;;;;;5118828;27;20077;-72
2023/11/17 08:58:58;;;;;;;9.18;5.65;;;;;;;;;;5115314;28;20440;-71
2023/11/17 09:01:43;;;;;;;9.27;5.18;;;;;;;;;;5115875;28;20019;-70
2023/11/17 09:04:29;;;;;;;11.80;5.13;;;;;;;;;;5103130;28;20073;-71
2023/11/17 09:07:16;;;;;;;10.23;5.65;;;;;;;;;;5102297;28;20467;-72
2023/11/17 09:10:02;;;;;;;14.75;5.90;;;;;;;;;;5118778;28;20027;-68
2023/11/17 09:12:48;;;;;;;41.10;8.57;;;;;;;;;;5122973;28;20102;-71
2023/11/17 09:15:33;;;;;;;19.70;6.07;;;;;;;;;;5138110;27;20040;-70
2023/11/17 09:18:19;;;;;;;11.13;5.50;;;;;;;;;;5118688;28;20337;-72
2023/11/17 09:21:05;;;;;;;10.75;6.00;;;;;;;;;;5115205;28;20110;-72
2023/11/17 09:23:51;;;;;;;21.63;6.30;;;;;;;;;;5114807;28;20100;-71
2023/11/17 09:26:37;;;;;;;14.63;5.65;;;;;;;;;;5115451;28;20073;-70
2023/11/17 09:29:23;;;;;;;18.95;7.45;;;;;;;;;;5102089;27;20033;-70
2023/11/17 09:32:08;;;;;;;12.43;5.60;;;;;;;;;;5115685;28;20027;-71
2023/11/17 09:34:54;;;;;;;15.45;6.10;;;;;;;;;;5116516;28;20023;-71
2023/11/17 09:37:50;;;;;;;11.88;5.57;;;;;;;;;;5116670;27;20031;-71
2023/11/17 09:40:36;;;;;;;20.00;5.88;;;;;;;;;;5115433;28;20406;-73
2023/11/17 09:43:23;;;;;;;14.40;5.25;;;;;;;;;;5115116;28;20114;-71
2023/11/17 09:46:10;;;;;;;11.65;5.25;;;;;;;;;;5114143;28;20459;-70
2023/11/17 09:49:03;;;;;;;15.93;5.85;;;;;;;;;;5115942;28;20344;-71
2023/11/17 09:51:49;;;;;;;15.05;5.28;;;;;;;;;;5114823;28;20058;-70
2023/11/17 09:54:35;;;;;;;35.22;9.43;;;;;;;;;;5114913;28;20060;-71
2023/11/17 09:57:21;;;;;;;11.02;5.57;;;;;;;;;;5115155;28;20034;-72
2023/11/17 10:00:17;;;;;;;15.52;6.60;;;;;;;;;;5114735;28;20432;-71
2023/11/17 10:03:04;;;;;;;11.20;5.97;;;;;;;;;;5101357;28;20016;-71
2023/11/17 10:05:50;;;;;;;10.75;5.40;;;;;;;;;;5101953;28;20027;-72
2023/11/17 10:08:39;;;;;;;19.35;7.25;;;;;;;;;;5114202;28;20359;-71
2023/11/17 10:11:25;;;;;;;15.32;6.05;;;;;;;;;;5115017;28;20023;-70
2023/11/17 10:14:12;;;;;;;16.50;5.22;;;;;;;;;;5114738;28;20405;-71
2023/11/17 10:16:59;;;;;;;7.50;4.60;;;;;;;;;;5114541;28;20088;-72
2023/11/17 10:19:46;;;;;;;8.00;4.50;;;;;;;;;;5108869;28;20407;-70
2023/11/17 10:22:32;;;;;;;9.75;4.78;;;;;;;;;;5114864;28;20015;-71
2023/11/17 10:25:19;;;;;;;12.10;5.50;;;;;;;;;;5099615;28;20447;-71
2023/11/17 10:28:04;;;;;;;9.40;4.70;;;;;;;;;;5115775;28;20023;-71
2023/11/17 10:30:56;;;;;;;13.32;5.10;;;;;;;;;;5114922;28;20067;-71
2023/11/17 10:33:45;;;;;;;8.30;5.25;;;;;;;;;;5100325;28;20026;-71
2023/11/17 10:36:31;;;;;;;12.55;4.80;;;;;;;;;;5114891;28;20337;-70
2023/11/17 10:39:19;;;;;;;9.90;5.22;;;;;;;;;;5114464;28;20020;-71
2023/11/17 10:42:17;;;;;;;10.00;5.47;;;;;;;;;;5114597;28;20015;-72
2023/11/17 10:45:16;;;;;;;19.73;6.18;;;;;;;;;;5100637;28;20026;-72
2023/11/17 10:48:02;;;;;;;16.05;6.38;;;;;;;;;;5101063;28;20019;-71
2023/11/17 10:50:48;;;;;;;8.80;5.35;;;;;;;;;;5101075;28;20055;-71
2023/11/17 10:53:35;;;;;;;9.65;5.50;;;;;;;;;;5100733;28;20047;-70
2023/11/17 10:56:27;;;;;;;8.15;5.07;;;;;;;;;;5100168;28;20051;-71
2023/11/17 10:59:18;;;;;;;10.65;5.60;;;;;;;;;;5114410;28;20011;-72
2023/11/17 11:02:04;;;;;;;12.15;6.15;;;;;;;;;;5114746;28;20027;-70
2023/11/17 11:04:50;;;;;;;9.80;4.93;;;;;;;;;;5114966;28;20333;-71
2023/11/17 11:07:43;;;;;;;8.27;5.32;;;;;;;;;;5115119;28;20015;-72
2023/11/17 11:10:28;;;;;;;13.57;5.95;;;;;;;;;;5114231;28;20020;-71
2023/11/17 11:13:14;;;;;;;7.68;5.07;;;;;;;;;;5114944;28;20126;-71
2023/11/17 11:16:05;;;;;;;9.80;5.47;;;;;;;;;;5114985;28;20035;-71
2023/11/17 11:18:54;;;;;;;13.70;5.22;;;;;;;;;;5116797;27;20325;-71
2023/11/17 11:21:40;;;;;;;12.27;6.00;;;;;;;;;;5115228;28;20058;-71
2023/11/17 11:24:29;;;;;;;13.63;6.43;;;;;;;;;;5116457;28;20028;-72
2023/11/17 11:27:15;;;;;;;9.35;5.75;;;;;;;;;;5117598;28;20467;-71
2023/11/17 11:30:02;;;;;;;16.92;6.78;;;;;;;;;;5118245;28;20102;-71
2023/11/17 11:32:47;;;;;;;23.67;7.50;;;;;;;;;;5118711;28;20098;-70
2023/11/17 11:35:33;;;;;;;17.33;7.25;;;;;;;;;;5118332;28;20038;-71
2023/11/17 11:38:19;;;;;;;16.30;7.05;;;;;;;;;;5117004;28;20012;-71
2023/11/17 11:41:11;;;;;;;15.65;6.85;;;;;;;;;;5117884;28;20088;-72
2023/11/17 11:43:57;;;;;;;15.07;7.35;;;;;;;;;;5118940;27;20028;-71
2023/11/17 11:46:42;;;;;;;15.60;7.65;;;;;;;;;;5118911;27;20051;-71
2023/11/17 11:49:28;;;;;;;22.70;8.35;;;;;;;;;;5110545;28;20093;-72
2023/11/17 11:52:27;;;;;;;16.35;8.80;;;;;;;;;;5103465;28;20399;-71
2023/11/17 11:55:16;;;;;;;17.05;8.60;;;;;;;;;;5117958;28;20030;-72
2023/11/17 11:58:03;;;;;;;18.52;8.38;;;;;;;;;;5103601;28;20049;-70
2023/11/17 12:00:50;;;;;;;18.20;8.90;;;;;;;;;;5103840;28;20015;-71
2023/11/17 12:03:35;;;;;;;17.38;8.43;;;;;;;;;;5103784;28;20115;-73
2023/11/17 12:06:21;;;;;;;16.02;8.48;;;;;;;;;;5122536;27;20024;-74
2023/11/17 12:09:08;;;;;;;19.20;8.60;;;;;;;;;;5136274;27;20046;-75
2023/11/17 12:11:54;;;;;;;27.35;9.70;;;;;;;;;;5122073;27;20114;-74
2023/11/17 12:14:41;;;;;;;19.40;8.52;;;;;;;;;;5137402;27;20083;-74
2023/11/17 12:17:31;;;;;;;11.52;7.03;;;;;;;;;;5136802;27;20031;-75
2023/11/17 12:20:21;;;;;;;14.18;7.72;;;;;;;;;;5136043;27;20015;-75
2023/11/17 12:23:08;;;;;;;16.55;7.70;;;;;;;;;;5129002;27;20398;-71
2023/11/17 12:25:54;;;;;;;17.58;8.15;;;;;;;;;;5116116;28;20027;-74
2023/11/17 12:28:40;;;;;;;15.95;9.88;;;;;;;;;;5117401;27;20446;-74
2023/11/17 12:31:26;;;;;;;15.60;7.70;;;;;;;;;;5115873;28;20028;-73
2023/11/17 12:34:11;;;;;;;19.70;8.88;;;;;;;;;;5101547;28;20016;-74
2023/11/17 12:37:00;;;;;;;14.23;7.80;;;;;;;;;;5116382;28;20395;-74
2023/11/17 12:39:45;;;;;;;14.10;7.63;;;;;;;;;;5116155;28;20495;-73
2023/11/17 12:42:31;;;;;;;15.68;7.45;;;;;;;;;;5101466;28;20046;-75
2023/11/17 12:45:17;;;;;;;14.45;7.32;;;;;;;;;;5116766;28;20394;-73
2023/11/17 12:48:03;;;;;;;18.63;8.13;;;;;;;;;;5116058;28;20030;-74
2023/11/17 12:50:48;;;;;;;15.68;8.25;;;;;;;;;;5115209;28;20184;-74
2023/11/17 12:53:45;;;;;;;17.25;8.30;;;;;;;;;;5102134;28;20019;-73
2023/11/17 12:56:30;;;;;;;14.63;8.23;;;;;;;;;;5105688;27;20466;-73
2023/11/17 12:59:20;;;;;;;17.63;9.18;;;;;;;;;;5132312;27;20500;-71
2023/11/17 13:02:06;;;;;;;15.27;8.43;;;;;;;;;;5116005;28;20459;-71
2023/11/17 13:04:52;;;;;;;17.85;8.40;;;;;;;;;;5115592;28;20386;-70
2023/11/17 13:07:38;;;;;;;20.33;9.48;;;;;;;;;;5115750;28;20440;-73
2023/11/17 13:10:23;;;;;;;15.57;8.07;;;;;;;;;;5115675;28;20051;-73
2023/11/17 13:13:09;;;;;;;18.45;8.60;;;;;;;;;;5102271;28;20026;-73
2023/11/17 13:15:54;;;;;;;14.25;7.85;;;;;;;;;;5114903;28;20030;-72
2023/11/17 13:18:41;;;;;;;15.95;9.02;;;;;;;;;;5119383;28;20062;-72
2023/11/17 13:21:29;;;;;;;23.48;9.63;;;;;;;;;;5116504;28;20108;-72
2023/11/17 13:24:15;;;;;;;22.83;9.93;;;;;;;;;;5115714;28;20028;-73
2023/11/17 13:27:02;;;;;;;16.80;10.10;;;;;;;;;;5115418;28;20046;-72
2023/11/17 13:29:47;;;;;;;23.52;10.52;;;;;;;;;;5100651;28;20024;-71
2023/11/17 13:32:52;;;;;;;22.38;11.07;;;;;;;;;;5115639;28;20026;-71
2023/11/17 13:35:38;;;;;;;21.55;11.10;;;;;;;;;;5115067;28;20027;-71
2023/11/17 13:38:24;;;;;;;23.63;12.00;;;;;;;;;;5115163;28;20023;-71
2023/11/17 13:41:10;;;;;;;18.67;10.48;;;;;;;;;;5114760;28;20440;-72
2023/11/17 13:43:56;;;;;;;18.90;9.57;;;;;;;;;;5115516;28;20027;-72
2023/11/17 13:46:43;;;;;;;18.35;10.95;;;;;;;;;;5114835;28;20023;-71
2023/11/17 13:49:29;;;;;;;20.80;10.65;;;;;;;;;;5114954;28;20509;-71
2023/11/17 13:52:16;;;;;;;19.48;10.65;;;;;;;;;;5114445;28;20051;-70
2023/11/17 13:55:02;;;;;;;16.15;9.02;;;;;;;;;;5115128;28;20446;-70
2023/11/17 13:57:48;;;;;;;17.23;9.68;;;;;;;;;;5099883;28;20067;-71
2023/11/17 14:00:35;;;;;;;19.23;9.57;;;;;;;;;;5129687;27;20463;-71
2023/11/17 14:03:20;;;;;;;16.95;9.10;;;;;;;;;;5135600;27;20023;-72
2023/11/17 14:06:06;;;;;;;18.75;10.10;;;;;;;;;;5133559;27;20027;-71
2023/11/17 14:08:54;;;;;;;15.77;9.38;;;;;;;;;;5135640;27;20023;-71
2023/11/17 14:11:40;;;;;;;22.88;9.48;;;;;;;;;;5134418;27;20027;-71
2023/11/17 14:14:30;;;;;;;16.25;9.80;;;;;;;;;;5134788;27;20030;-71
2023/11/17 14:17:15;;;;;;;19.88;10.20;;;;;;;;;;5134494;27;20085;-71
2023/11/17 14:20:07;;;;;;;19.45;10.50;;;;;;;;;;5134317;27;20103;-70
2023/11/17 14:22:53;;;;;;;17.85;9.75;;;;;;;;;;5133729;27;20455;-70
2023/11/17 14:25:38;;;;;;;12.75;8.30;;;;;;;;;;5134553;27;20019;-69
2023/11/17 14:28:24;;;;;;;17.60;7.68;;;;;;;;;;5133486;28;20027;-70
2023/11/17 14:31:10;;;;;;;11.30;7.28;;;;;;;;;;5134224;28;20093;-70
2023/11/17 14:33:55;;;;;;;15.25;7.38;;;;;;;;;;5133220;28;20466;-71
2023/11/17 14:36:41;;;;;;;11.32;7.45;;;;;;;;;;5119614;28;20073;-71
2023/11/17 14:39:30;;;;;;;12.32;6.50;;;;;;;;;;5132931;28;20061;-70
2023/11/17 14:42:15;;;;;;;13.77;7.20;;;;;;;;;;5134083;28;20077;-70
2023/11/17 14:45:04;;;;;;;13.27;7.88;;;;;;;;;;5119449;28;20080;-72
2023/11/17 14:47:50;;;;;;;12.63;6.72;;;;;;;;;;5119701;28;20115;-70
2023/11/17 14:50:36;;;;;;;16.38;8.27;;;;;;;;;;5119573;28;20065;-71
2023/11/17 14:53:22;;;;;;;14.55;8.40;;;;;;;;;;5137536;28;20059;-72
2023/11/17 14:56:09;;;;;;;38.13;10.88;;;;;;;;;;5105430;28;20015;-72
2023/11/17 14:58:58;;;;;;;22.92;9.15;;;;;;;;;;5134884;27;20027;-69
2023/11/17 15:01:44;;;;;;;17.77;9.15;;;;;;;;;;5102730;28;20458;-70
2023/11/17 15:04:29;;;;;;;29.27;9.68;;;;;;;;;;5116876;28;20063;-71
2023/11/17 15:07:15;;;;;;;18.58;9.02;;;;;;;;;;5103816;28;20020;-71
2023/11/17 15:10:00;;;;;;;19.08;8.40;;;;;;;;;;5117313;28;20019;-71
2023/11/17 15:12:48;;;;;;;17.60;9.20;;;;;;;;;;5117698;28;20054;-70
2023/11/17 15:15:34;;;;;;;17.88;9.57;;;;;;;;;;5116243;28;20409;-69
2023/11/17 15:18:19;;;;;;;21.27;9.00;;;;;;;;;;5116263;28;20035;-70
2023/11/17 15:21:07;;;;;;;18.15;8.60;;;;;;;;;;5117270;28;20015;-70
2023/11/17 15:23:53;;;;;;;18.98;9.70;;;;;;;;;;5117286;28;20050;-71
2023/11/17 15:26:42;;;;;;;24.58;9.63;;;;;;;;;;5118126;28;20030;-71
2023/11/17 15:29:30;;;;;;;17.30;8.88;;;;;;;;;;5116408;28;20061;-70
2023/11/17 15:32:15;;;;;;;16.42;8.80;;;;;;;;;;5116319;28;20019;-71
2023/11/17 15:35:03;;;;;;;18.08;9.15;;;;;;;;;;5116316;28;20337;-71
2023/11/17 15:37:52;;;;;;;19.15;8.27;;;;;;;;;;5117272;28;20031;-71
2023/11/17 15:40:38;;;;;;;18.98;9.02;;;;;;;;;;5102515;28;20023;-71
2023/11/17 15:43:30;;;;;;;21.73;9.25;;;;;;;;;;5117449;28;20080;-70
2023/11/17 15:46:22;;;;;;;25.63;10.23;;;;;;;;;;5116812;28;20019;-70
2023/11/17 15:49:11;;;;;;;17.95;9.63;;;;;;;;;;5117152;28;20033;-72
2023/11/17 15:51:56;;;;;;;21.85;9.98;;;;;;;;;;5117544;28;20071;-72
2023/11/17 15:54:47;;;;;;;40.20;10.93;;;;;;;;;;5102757;28;20363;-72
2023/11/17 15:57:34;;;;;;;26.10;10.15;;;;;;;;;;5102143;28;20418;-70
2023/11/17 16:00:26;;;;;;;26.00;12.57;;;;;;;;;;5101766;28;20016;-72
2023/11/17 16:03:12;;;;;;;28.48;10.77;;;;;;;;;;5116851;28;20081;-69
2023/11/17 16:05:58;;;;;;;22.92;9.68;;;;;;;;;;5117393;28;20336;-72
2023/11/17 16:08:43;;;;;;;17.83;9.30;;;;;;;;;;5121050;28;20495;-72
2023/11/17 16:11:31;;;;;;;20.88;8.82;;;;;;;;;;5105619;28;20027;-71
2023/11/17 16:14:16;;;;;;;16.67;8.55;;;;;;;;;;5124891;28;20088;-72
2023/11/17 16:17:02;;;;;;;33.13;9.65;;;;;;;;;;5127863;28;20011;-71
2023/11/17 16:19:50;;;;;;;17.48;8.68;;;;;;;;;;5127058;28;20012;-70
2023/11/17 16:22:38;;;;;;;20.83;9.10;;;;;;;;;;5109002;28;20035;-71
2023/11/17 16:25:25;;;;;;;21.55;8.65;;;;;;;;;;5125239;28;20368;-71
2023/11/17 16:28:11;;;;;;;18.52;9.55;;;;;;;;;;5127733;28;20034;-71
2023/11/17 16:30:56;;;;;;;18.10;9.57;;;;;;;;;;5125795;28;20109;-70